Time;durP1;ratioP1;P1;durP2;ratioP2;P2;SDS_P1;SDS_P2;PMS_P1;PMS_P2;Temp;Humidity;BMP_temperature;BMP_pressure;BME280_temperature;BME280_humidity;BME280_pressure;Samples;Min_cycle;Max_cycle;Signal;HPM_P1;HPM_P2
2022/01/22 00:02:11;;;;;;;8.68;1.77;;;;;;;;;;5055988;28;20092;-68
2022/01/22 00:04:49;;;;;;;2.25;1.15;;;;;;;;;;2370847;28;10023410;-67
2022/01/22 00:07:18;;;;;;;3.85;1.70;;;;;;;;;;3645007;28;10001815;-67
2022/01/22 00:09:52;;;;;;;6.28;1.85;;;;;;;;;;5035401;28;20049;-68
2022/01/22 00:12:32;;;;;;;2.88;1.48;;;;;;;;;;5048920;28;20053;-67
2022/01/22 00:15:00;;;;;;;2.58;1.35;;;;;;;;;;5041934;28;20430;-68
2022/01/22 00:17:29;;;;;;;6.30;1.70;;;;;;;;;;5049443;28;20048;-67
2022/01/22 00:19:57;;;;;;;3.47;1.40;;;;;;;;;;5030640;28;20132;-68
2022/01/22 00:22:29;;;;;;;6.57;1.63;;;;;;;;;;5049033;28;20064;-67
2022/01/22 00:24:59;;;;;;;3.17;1.80;;;;;;;;;;5051397;28;20473;-68
2022/01/22 00:27:30;;;;;;;1.83;1.35;;;;;;;;;;5049980;28;20071;-67
2022/01/22 00:29:58;;;;;;;5.30;1.42;;;;;;;;;;5037558;28;20040;-68
2022/01/22 00:32:26;;;;;;;4.28;1.30;;;;;;;;;;5056290;28;20132;-67
2022/01/22 00:34:55;;;;;;;6.15;1.40;;;;;;;;;;5054099;28;20140;-67
2022/01/22 00:37:23;;;;;;;2.25;1.33;;;;;;;;;;5065767;28;20135;-67
2022/01/22 00:39:51;;;;;;;7.03;1.40;;;;;;;;;;5053341;28;20048;-68
2022/01/22 00:42:21;;;;;;;3.15;1.30;;;;;;;;;;5053043;28;20041;-68
2022/01/22 00:44:51;;;;;;;2.35;1.08;;;;;;;;;;5068679;28;20135;-67
2022/01/22 00:47:20;;;;;;;7.15;1.45;;;;;;;;;;5054072;28;20060;-67
2022/01/22 00:49:49;;;;;;;1.55;1.13;;;;;;;;;;5035505;28;20056;-67
2022/01/22 00:52:18;;;;;;;2.20;1.13;;;;;;;;;;5048412;28;20091;-67
2022/01/22 00:54:46;;;;;;;4.47;1.60;;;;;;;;;;5047084;28;20552;-67
2022/01/22 00:57:14;;;;;;;6.55;1.38;;;;;;;;;;5052530;28;20106;-69
2022/01/22 00:59:43;;;;;;;2.45;1.17;;;;;;;;;;5045298;28;20137;-67
2022/01/22 01:02:12;;;;;;;2.92;1.42;;;;;;;;;;5048672;28;20136;-67
2022/01/22 01:04:41;;;;;;;5.10;1.73;;;;;;;;;;5041312;28;20083;-68
2022/01/22 01:07:09;;;;;;;2.67;1.17;;;;;;;;;;5043207;28;20048;-68
2022/01/22 01:09:39;;;;;;;1.83;1.10;;;;;;;;;;5063297;28;20045;-68
2022/01/22 01:12:11;;;;;;;8.23;1.10;;;;;;;;;;5050734;28;20124;-67
2022/01/22 01:14:44;;;;;;;7.22;1.50;;;;;;;;;;5040867;28;20045;-69
2022/01/22 01:17:34;;;;;;;1.23;0.98;;;;;;;;;;5050378;28;20137;-68
2022/01/22 01:34:42;;;;;;;1.20;1.00;;;;;;;;;;5044046;28;20061;-70
2022/01/22 01:37:12;;;;;;;1.17;0.80;;;;;;;;;;5031339;28;20572;-67
2022/01/22 01:39:42;;;;;;;2.42;1.05;;;;;;;;;;5046437;28;20073;-68
2022/01/22 01:42:14;;;;;;;2.63;0.73;;;;;;;;;;5042328;28;20058;-67
2022/01/22 01:44:42;;;;;;;15.10;1.25;;;;;;;;;;5048128;28;20143;-68
2022/01/22 01:47:14;;;;;;;3.63;1.30;;;;;;;;;;5039153;28;20144;-68
2022/01/22 01:49:44;;;;;;;2.47;1.02;;;;;;;;;;5044934;28;20483;-69
2022/01/22 01:52:18;;;;;;;2.05;1.05;;;;;;;;;;5035931;28;20112;-68
2022/01/22 01:54:59;;;;;;;2.53;1.10;;;;;;;;;;5053671;28;20474;-67
2022/01/22 01:57:38;;;;;;;5.07;1.55;;;;;;;;;;5050051;28;21301;-68
2022/01/22 02:00:24;;;;;;;7.15;1.25;;;;;;;;;;5040311;28;20623;-69
2022/01/22 02:02:54;;;;;;;3.90;1.27;;;;;;;;;;5031727;28;20099;-68
2022/01/22 02:05:41;;;;;;;3.63;0.95;;;;;;;;;;845450;28;10003415;-68
2022/01/22 02:08:12;;;;;;;2.97;1.02;;;;;;;;;;5029440;28;20274;-68
2022/01/22 02:10:45;;;;;;;6.00;1.33;;;;;;;;;;5037395;28;20569;-68
2022/01/22 02:24:48;;;;;;;1.58;1.02;;;;;;;;;;5047258;28;20040;-68
2022/01/22 02:27:16;;;;;;;3.67;1.15;;;;;;;;;;5043597;28;20493;-68
2022/01/22 02:29:45;;;;;;;1.50;1.08;;;;;;;;;;5045589;28;20037;-68
2022/01/22 02:32:46;;;;;;;0.47;0.45;;;;;;;;;;5046333;28;20076;-68
2022/01/22 02:35:21;;;;;;;1.23;0.80;;;;;;;;;;5042135;28;20045;-68
2022/01/22 02:37:57;;;;;;;2.70;0.90;;;;;;;;;;5041849;28;20119;-68
2022/01/22 02:40:28;;;;;;;1.77;0.80;;;;;;;;;;5041816;28;20459;-68
2022/01/22 02:42:57;;;;;;;4.53;0.80;;;;;;;;;;5039095;28;20053;-68
2022/01/22 02:45:25;;;;;;;5.15;1.00;;;;;;;;;;5036244;28;20049;-69
2022/01/22 02:47:54;;;;;;;2.78;1.30;;;;;;;;;;5036635;28;20124;-68
2022/01/22 02:50:22;;;;;;;1.20;0.98;;;;;;;;;;5043212;28;20080;-69
2022/01/22 02:52:52;;;;;;;1.98;1.13;;;;;;;;;;5046427;28;20095;-69
2022/01/22 02:55:20;;;;;;;2.38;0.90;;;;;;;;;;5035607;28;20475;-68
2022/01/22 02:57:49;;;;;;;3.13;1.00;;;;;;;;;;5047503;28;20099;-67
2022/01/22 03:00:22;;;;;;;2.38;0.85;;;;;;;;;;5041495;28;20049;-68
2022/01/22 03:02:51;;;;;;;0.98;0.80;;;;;;;;;;5045525;28;20080;-68
2022/01/22 03:05:19;;;;;;;3.08;1.00;;;;;;;;;;5050704;28;20052;-68
2022/01/22 03:07:51;;;;;;;2.22;1.23;;;;;;;;;;5045881;28;20079;-68
2022/01/22 03:10:24;;;;;;;1.92;0.90;;;;;;;;;;5040487;28;20176;-68
2022/01/22 03:21:43;;;;;;;1.30;0.82;;;;;;;;;;5124435;27;20399;-67
2022/01/22 03:27:22;;;;;;;3.60;0.95;;;;;;;;;;5124482;27;20130;-67
2022/01/22 03:29:51;;;;;;;9.02;1.55;;;;;;;;;;5105761;27;20054;-67
2022/01/22 03:32:20;;;;;;;1.98;1.15;;;;;;;;;;5095857;28;20472;-67
2022/01/22 03:34:56;;;;;;;1.25;0.95;;;;;;;;;;5094571;28;20134;-67
2022/01/22 03:37:27;;;;;;;3.85;1.17;;;;;;;;;;5093009;28;20135;-67
2022/01/22 03:39:55;;;;;;;2.67;1.00;;;;;;;;;;5082211;28;20484;-67
2022/01/22 03:42:24;;;;;;;1.02;1.00;;;;;;;;;;5070142;28;20556;-67
2022/01/22 03:44:52;;;;;;;2.05;1.13;;;;;;;;;;5058710;28;20073;-67
2022/01/22 03:47:20;;;;;;;2.53;1.33;;;;;;;;;;5066400;28;20363;-68
2022/01/22 03:49:48;;;;;;;1.60;0.93;;;;;;;;;;5066300;28;20090;-67
2022/01/22 03:52:17;;;;;;;1.92;1.23;;;;;;;;;;5064649;28;20068;-67
2022/01/22 03:54:47;;;;;;;1.17;0.90;;;;;;;;;;5065015;28;20072;-67
2022/01/22 03:57:16;;;;;;;2.08;1.08;;;;;;;;;;5062342;28;20098;-68
2022/01/22 03:59:45;;;;;;;1.85;1.30;;;;;;;;;;5066230;28;20484;-68
2022/01/22 04:02:53;;;;;;;5.85;2.10;;;;;;;;;;5057832;28;20116;-68
2022/01/22 04:05:19;;;;;;;5.13;1.63;;;;;;;;;;5066025;28;20418;-67
2022/01/22 04:08:10;;;;;;;2.03;1.23;;;;;;;;;;5066319;28;20104;-67
2022/01/22 04:10:40;;;;;;;6.03;1.95;;;;;;;;;;5075423;28;21175;-68
2022/01/22 04:13:12;;;;;;;5.88;1.83;;;;;;;;;;5065045;28;20851;-68
2022/01/22 04:15:41;;;;;;;3.33;1.45;;;;;;;;;;5065336;28;20127;-68
2022/01/22 04:27:00;;;;;;;4.80;1.60;;;;;;;;;;5062557;28;20497;-67
2022/01/22 04:29:30;;;;;;;6.10;2.20;;;;;;;;;;5065384;28;20057;-68
2022/01/22 04:31:58;;;;;;;4.28;2.13;;;;;;;;;;5057129;28;20088;-67
2022/01/22 04:34:27;;;;;;;8.18;2.13;;;;;;;;;;5044934;28;20068;-68
2022/01/22 04:36:55;;;;;;;4.32;1.63;;;;;;;;;;5050396;28;20140;-67
2022/01/22 04:39:25;;;;;;;5.10;2.45;;;;;;;;;;5046387;28;20147;-67
2022/01/22 04:41:56;;;;;;;3.67;2.40;;;;;;;;;;5046360;28;20135;-67
2022/01/22 04:44:30;;;;;;;4.20;1.65;;;;;;;;;;5045979;28;20052;-67
2022/01/22 04:47:13;;;;;;;4.53;2.40;;;;;;;;;;5052520;28;20492;-68
2022/01/22 04:52:38;;;;;;;4.00;1.80;;;;;;;;;;5048346;28;20046;-67
2022/01/22 04:55:07;;;;;;;5.93;2.42;;;;;;;;;;5039587;28;20111;-67
2022/01/22 04:57:37;;;;;;;4.65;2.45;;;;;;;;;;5052197;28;20088;-67
2022/01/22 05:00:08;;;;;;;9.10;2.42;;;;;;;;;;5050693;28;20037;-68
2022/01/22 05:02:36;;;;;;;3.38;2.05;;;;;;;;;;5046819;28;20119;-68
2022/01/22 05:05:05;;;;;;;4.75;2.83;;;;;;;;;;5051820;28;20053;-68
2022/01/22 05:07:34;;;;;;;5.22;2.72;;;;;;;;;;5041824;28;20076;-68
2022/01/22 05:10:02;;;;;;;3.78;2.10;;;;;;;;;;5051047;28;20709;-68
2022/01/22 05:12:31;;;;;;;3.30;2.22;;;;;;;;;;5041532;28;20333;-67
2022/01/22 05:14:59;;;;;;;5.15;2.63;;;;;;;;;;5049111;28;20069;-68
2022/01/22 05:21:07;;;;;;;2.50;1.75;;;;;;;;;;5045043;28;20052;-68
2022/01/22 05:23:37;;;;;;;4.28;2.15;;;;;;;;;;5048994;28;20131;-68
2022/01/22 05:26:24;;;;;;;6.18;2.42;;;;;;;;;;5039337;28;20485;-67
2022/01/22 05:29:30;;;;;;;5.02;1.73;;;;;;;;;;2224752;28;10024548;-69
2022/01/22 05:37:31;;;;;;;7.15;2.08;;;;;;;;;;5039599;28;20007;-68
2022/01/22 05:40:00;;;;;;;5.07;2.33;;;;;;;;;;5043186;28;20041;-68
2022/01/22 05:42:28;;;;;;;8.48;2.90;;;;;;;;;;5035109;28;20155;-67
2022/01/22 05:44:57;;;;;;;10.25;3.50;;;;;;;;;;5040691;28;20072;-68
2022/01/22 05:47:27;;;;;;;8.95;2.55;;;;;;;;;;5055812;28;20128;-68
2022/01/22 05:49:55;;;;;;;8.13;3.00;;;;;;;;;;5058732;28;20080;-67
2022/01/22 05:52:31;;;;;;;7.10;2.92;;;;;;;;;;5044581;28;20049;-68
2022/01/22 06:00:32;;;;;;;9.27;2.75;;;;;;;;;;5046730;28;20148;-68
2022/01/22 06:03:01;;;;;;;7.95;3.13;;;;;;;;;;5049962;28;20056;-67
2022/01/22 06:05:29;;;;;;;8.80;3.08;;;;;;;;;;5043971;28;20144;-68
2022/01/22 06:07:58;;;;;;;5.68;2.78;;;;;;;;;;5045828;28;20552;-69
2022/01/22 06:10:29;;;;;;;9.55;3.03;;;;;;;;;;5045418;28;20045;-67
2022/01/22 06:13:10;;;;;;;8.27;2.83;;;;;;;;;;5041087;28;20041;-67
2022/01/22 06:15:39;;;;;;;6.70;2.55;;;;;;;;;;5038694;28;20559;-67
2022/01/22 06:18:07;;;;;;;7.90;2.92;;;;;;;;;;5043033;28;20066;-68
2022/01/22 06:20:35;;;;;;;5.47;2.45;;;;;;;;;;5033332;28;20132;-67
2022/01/22 06:23:04;;;;;;;5.43;2.90;;;;;;;;;;5033046;28;20048;-67
2022/01/22 06:25:34;;;;;;;5.60;3.20;;;;;;;;;;5039888;28;20585;-67
2022/01/22 06:28:03;;;;;;;4.43;2.38;;;;;;;;;;5045749;28;20053;-67
2022/01/22 06:30:32;;;;;;;6.03;3.10;;;;;;;;;;5035999;28;20408;-67
2022/01/22 06:33:17;;;;;;;6.64;2.78;;;;;;;;;;2948928;28;10003354;-67
2022/01/22 06:35:45;;;;;;;6.32;3.30;;;;;;;;;;2953472;28;10001108;-69
2022/01/22 06:38:14;;;;;;;9.07;2.60;;;;;;;;;;5048261;28;20110;-68
2022/01/22 06:43:31;;;;;;;4.63;2.40;;;;;;;;;;5034608;28;20073;-68
2022/01/22 06:46:00;;;;;;;4.93;2.95;;;;;;;;;;5043067;28;21713;-67
2022/01/22 06:48:28;;;;;;;5.28;3.28;;;;;;;;;;5039518;28;20058;-67
2022/01/22 06:50:58;;;;;;;11.80;3.50;;;;;;;;;;5042426;28;20091;-68
2022/01/22 06:53:26;;;;;;;6.60;3.40;;;;;;;;;;5038364;28;20124;-67
2022/01/22 06:55:59;;;;;;;6.18;3.20;;;;;;;;;;5039076;28;20045;-68
2022/01/22 06:58:27;;;;;;;4.28;2.60;;;;;;;;;;5045990;28;20308;-68
2022/01/22 07:00:55;;;;;;;13.25;3.63;;;;;;;;;;5045001;28;20581;-67
2022/01/22 07:03:24;;;;;;;5.88;2.78;;;;;;;;;;5044365;28;20055;-68
2022/01/22 07:05:52;;;;;;;6.85;3.90;;;;;;;;;;5044638;28;20077;-68
2022/01/22 07:08:21;;;;;;;7.22;2.67;;;;;;;;;;5037828;28;20469;-69
2022/01/22 07:10:49;;;;;;;6.75;3.13;;;;;;;;;;5045314;28;20405;-68
2022/01/22 07:13:19;;;;;;;6.65;3.60;;;;;;;;;;5042040;28;20128;-67
2022/01/22 07:15:47;;;;;;;6.72;3.10;;;;;;;;;;5037655;28;20048;-69
2022/01/22 07:18:16;;;;;;;7.47;3.47;;;;;;;;;;5046048;28;20408;-71
2022/01/22 07:20:45;;;;;;;5.88;3.60;;;;;;;;;;5046024;28;20139;-69
2022/01/22 07:23:17;;;;;;;11.50;3.70;;;;;;;;;;5036324;28;20140;-69
2022/01/22 07:25:46;;;;;;;8.50;3.65;;;;;;;;;;5037952;28;20059;-68
2022/01/22 07:28:16;;;;;;;6.40;3.70;;;;;;;;;;5042500;28;20528;-68
2022/01/22 07:30:48;;;;;;;7.13;3.30;;;;;;;;;;5050512;28;20049;-71
2022/01/22 07:33:17;;;;;;;9.27;4.25;;;;;;;;;;5044410;28;20067;-68
2022/01/22 07:35:46;;;;;;;7.53;3.92;;;;;;;;;;5038080;28;20067;-69
2022/01/22 07:38:14;;;;;;;7.90;3.83;;;;;;;;;;5033636;28;20099;-69
2022/01/22 07:40:43;;;;;;;6.28;3.33;;;;;;;;;;5045197;28;20564;-69
2022/01/22 07:43:11;;;;;;;6.03;3.05;;;;;;;;;;5039464;28;20046;-70
2022/01/22 07:45:40;;;;;;;7.22;3.78;;;;;;;;;;5035473;28;20144;-68
2022/01/22 07:48:09;;;;;;;8.13;4.07;;;;;;;;;;5048353;28;20045;-71
2022/01/22 07:50:38;;;;;;;6.85;3.67;;;;;;;;;;5046956;28;20049;-69
2022/01/22 07:53:06;;;;;;;9.43;3.60;;;;;;;;;;5035661;28;20053;-70
2022/01/22 07:55:34;;;;;;;8.88;4.55;;;;;;;;;;5037862;28;20136;-70
2022/01/22 07:58:03;;;;;;;4.50;2.70;;;;;;;;;;5037320;28;20053;-69
2022/01/22 08:00:32;;;;;;;7.47;3.80;;;;;;;;;;5036496;28;20455;-69
2022/01/22 08:03:01;;;;;;;9.70;4.32;;;;;;;;;;5042077;28;20068;-69
2022/01/22 08:05:49;;;;;;;8.53;4.58;;;;;;;;;;4520213;28;10001074;-69
2022/01/22 08:08:17;;;;;;;7.50;4.00;;;;;;;;;;1737799;28;10002037;-69
2022/01/22 08:10:45;;;;;;;9.93;4.15;;;;;;;;;;5042657;28;20040;-69
2022/01/22 08:13:14;;;;;;;7.97;3.25;;;;;;;;;;5046044;28;20501;-70
2022/01/22 08:15:42;;;;;;;12.75;4.18;;;;;;;;;;5045647;28;20080;-69
2022/01/22 08:18:11;;;;;;;10.07;4.22;;;;;;;;;;5049490;28;20136;-71
2022/01/22 08:20:40;;;;;;;7.00;3.75;;;;;;;;;;5050677;28;20138;-69
2022/01/22 08:23:10;;;;;;;4.80;2.95;;;;;;;;;;5040024;28;20116;-69
2022/01/22 08:25:43;;;;;;;8.52;4.00;;;;;;;;;;5041603;28;20037;-70
2022/01/22 08:31:03;;;;;;;9.20;3.60;;;;;;;;;;5060831;28;20072;-70
2022/01/22 08:35:52;;;;;;;8.10;4.30;;;;;;;;;;5039480;28;20045;-69
2022/01/22 08:36:21;;;;;;;7.32;3.60;;;;;;;;;;5051822;28;20130;-69
2022/01/22 08:38:51;;;;;;;10.32;4.13;;;;;;;;;;5052107;28;20064;-69
2022/01/22 08:41:19;;;;;;;10.98;4.95;;;;;;;;;;5050082;28;20569;-69
2022/01/22 08:43:48;;;;;;;8.43;3.85;;;;;;;;;;5050174;28;20140;-69
2022/01/22 08:46:16;;;;;;;9.93;4.10;;;;;;;;;;5035633;28;20045;-68
2022/01/22 08:48:45;;;;;;;10.05;4.20;;;;;;;;;;5045857;28;20411;-69
2022/01/22 08:51:14;;;;;;;9.88;4.55;;;;;;;;;;5044430;28;20444;-69
2022/01/22 08:53:47;;;;;;;11.90;4.65;;;;;;;;;;5046711;28;20055;-69
2022/01/22 08:56:18;;;;;;;8.23;4.60;;;;;;;;;;5040635;28;20052;-70
2022/01/22 08:58:46;;;;;;;7.38;3.75;;;;;;;;;;5036680;28;20554;-69
2022/01/22 09:01:15;;;;;;;8.32;3.90;;;;;;;;;;5042087;28;20085;-69
2022/01/22 09:03:43;;;;;;;6.72;4.22;;;;;;;;;;5041791;28;20061;-69
2022/01/22 09:06:12;;;;;;;7.55;4.00;;;;;;;;;;5034881;28;20053;-69
2022/01/22 09:08:41;;;;;;;8.57;4.18;;;;;;;;;;5042046;28;20516;-69
2022/01/22 09:11:10;;;;;;;10.38;5.03;;;;;;;;;;5048044;28;20085;-68
2022/01/22 09:13:40;;;;;;;8.13;4.75;;;;;;;;;;5043411;28;20565;-69
2022/01/22 09:16:09;;;;;;;7.28;4.45;;;;;;;;;;5050025;28;20085;-68
2022/01/22 09:18:37;;;;;;;10.13;4.70;;;;;;;;;;5043748;28;20041;-68
2022/01/22 09:21:10;;;;;;;12.52;4.57;;;;;;;;;;5049694;28;20157;-69
2022/01/22 09:23:38;;;;;;;10.85;4.32;;;;;;;;;;5051090;28;20496;-69
2022/01/22 09:26:07;;;;;;;12.00;4.97;;;;;;;;;;5046567;28;20041;-69
2022/01/22 09:28:36;;;;;;;9.15;4.30;;;;;;;;;;5038709;28;20546;-69
2022/01/22 09:31:08;;;;;;;14.00;5.15;;;;;;;;;;5044579;28;20443;-69
2022/01/22 09:33:38;;;;;;;13.43;4.18;;;;;;;;;;5038423;28;20098;-70
2022/01/22 09:36:10;;;;;;;7.85;4.50;;;;;;;;;;5050591;28;20051;-70
2022/01/22 09:38:38;;;;;;;7.93;4.15;;;;;;;;;;5049172;28;20053;-69
2022/01/22 09:41:07;;;;;;;10.48;3.83;;;;;;;;;;5046223;28;20081;-69
2022/01/22 09:43:35;;;;;;;11.23;4.65;;;;;;;;;;5046477;28;20107;-70
2022/01/22 09:46:08;;;;;;;12.52;4.70;;;;;;;;;;5038361;28;20101;-70
2022/01/22 09:48:40;;;;;;;9.60;4.82;;;;;;;;;;5046061;28;20347;-69
2022/01/22 09:51:09;;;;;;;9.98;4.75;;;;;;;;;;5047490;28;20416;-70
2022/01/22 09:53:38;;;;;;;11.73;4.78;;;;;;;;;;5046114;28;20059;-69
2022/01/22 09:56:07;;;;;;;8.38;4.68;;;;;;;;;;5037342;28;20141;-69
2022/01/22 09:58:35;;;;;;;7.03;4.05;;;;;;;;;;5032479;28;20084;-68
2022/01/22 10:01:25;;;;;;;11.55;5.13;;;;;;;;;;5036591;28;20115;-69
2022/01/22 10:04:03;;;;;;;12.57;5.14;;;;;;;;;;4910042;28;10001187;-71
2022/01/22 10:06:32;;;;;;;7.55;4.47;;;;;;;;;;691878;28;10002120;-69
2022/01/22 10:09:12;;;;;;;11.50;5.10;;;;;;;;;;5038556;28;20049;-69
2022/01/22 10:11:41;;;;;;;10.50;4.18;;;;;;;;;;5041151;28;20179;-69
2022/01/22 10:14:10;;;;;;;10.85;4.15;;;;;;;;;;5043343;28;20077;-69
2022/01/22 10:16:40;;;;;;;11.40;5.32;;;;;;;;;;5049524;28;20053;-69
2022/01/22 10:19:10;;;;;;;10.00;3.95;;;;;;;;;;5045563;28;20452;-68
2022/01/22 10:21:39;;;;;;;11.43;4.35;;;;;;;;;;5041915;28;20084;-68
2022/01/22 10:24:25;;;;;;;9.65;4.25;;;;;;;;;;5047521;28;20076;-68
2022/01/22 10:27:08;;;;;;;10.38;5.10;;;;;;;;;;5047764;28;20076;-68
2022/01/22 10:29:37;;;;;;;10.75;4.88;;;;;;;;;;5055035;28;20127;-68
2022/01/22 10:32:07;;;;;;;11.43;4.80;;;;;;;;;;5035467;28;20099;-68
2022/01/22 10:34:37;;;;;;;8.60;4.45;;;;;;;;;;5046811;28;20045;-69
2022/01/22 10:37:06;;;;;;;11.52;3.97;;;;;;;;;;5032473;28;20072;-69
2022/01/22 10:39:35;;;;;;;11.15;4.80;;;;;;;;;;5034100;28;20512;-69
2022/01/22 10:42:19;;;;;;;9.73;4.28;;;;;;;;;;5042783;28;20128;-70
2022/01/22 10:44:49;;;;;;;11.07;4.45;;;;;;;;;;5048019;28;20049;-70
2022/01/22 10:47:25;;;;;;;13.13;4.47;;;;;;;;;;5031875;28;20103;-70
2022/01/22 10:49:54;;;;;;;10.57;4.88;;;;;;;;;;5045389;28;20053;-70
2022/01/22 10:52:23;;;;;;;13.68;4.65;;;;;;;;;;5043901;28;20045;-70
2022/01/22 10:55:01;;;;;;;8.68;4.20;;;;;;;;;;5035772;28;20044;-70
2022/01/22 10:57:30;;;;;;;7.78;4.70;;;;;;;;;;5039667;28;20064;-69
2022/01/22 11:00:00;;;;;;;12.10;4.78;;;;;;;;;;5043841;28;20053;-70
2022/01/22 11:02:34;;;;;;;8.65;4.88;;;;;;;;;;5048484;28;20095;-70
2022/01/22 11:05:04;;;;;;;10.93;4.78;;;;;;;;;;5038694;28;20045;-70
2022/01/22 11:07:33;;;;;;;11.32;4.72;;;;;;;;;;5033991;28;20060;-70
2022/01/22 11:10:07;;;;;;;11.48;4.35;;;;;;;;;;5035803;28;20139;-70
2022/01/22 11:12:36;;;;;;;7.57;4.88;;;;;;;;;;5040273;28;20060;-70
2022/01/22 11:15:05;;;;;;;8.55;4.22;;;;;;;;;;5045153;28;20057;-69
2022/01/22 11:17:35;;;;;;;7.85;3.97;;;;;;;;;;5034883;28;20131;-69
2022/01/22 11:20:05;;;;;;;9.75;4.20;;;;;;;;;;5035949;28;20370;-69
2022/01/22 11:22:33;;;;;;;15.68;4.78;;;;;;;;;;5035921;28;20053;-70
2022/01/22 11:25:02;;;;;;;9.77;4.25;;;;;;;;;;5051289;28;20563;-69
2022/01/22 11:27:33;;;;;;;10.85;4.50;;;;;;;;;;5061995;28;20049;-69
2022/01/22 11:30:04;;;;;;;7.35;3.70;;;;;;;;;;5049878;28;20390;-70
2022/01/22 11:32:42;;;;;;;9.48;4.90;;;;;;;;;;5051454;28;20045;-69
2022/01/22 11:35:13;;;;;;;16.00;4.53;;;;;;;;;;5044475;28;20135;-70
2022/01/22 11:37:47;;;;;;;9.05;4.07;;;;;;;;;;5049846;28;20114;-70
2022/01/22 11:40:17;;;;;;;12.27;4.03;;;;;;;;;;5041432;28;20084;-70
2022/01/22 11:42:59;;;;;;;8.30;4.20;;;;;;;;;;5063859;28;20070;-69
2022/01/22 11:45:31;;;;;;;12.13;4.13;;;;;;;;;;5042016;28;20139;-70
2022/01/22 11:48:13;;;;;;;8.05;4.03;;;;;;;;;;5039249;28;20188;-70
2022/01/22 11:50:44;;;;;;;11.63;4.15;;;;;;;;;;5047820;28;20041;-70
2022/01/22 11:53:22;;;;;;;6.72;4.03;;;;;;;;;;5050320;28;20044;-70
2022/01/22 11:56:10;;;;;;;9.10;4.60;;;;;;;;;;5049759;28;20072;-70
2022/01/22 11:58:53;;;;;;;8.63;4.13;;;;;;;;;;5051942;28;20057;-70
2022/01/22 12:01:36;;;;;;;11.57;4.50;;;;;;;;;;5051299;28;20060;-70
2022/01/22 12:04:06;;;;;;;7.93;3.47;;;;;;;;;;5051781;28;20048;-70
2022/01/22 12:07:07;;;;;;;9.75;4.63;;;;;;;;;;4731387;28;10001213;-72
2022/01/22 12:09:42;;;;;;;9.40;4.28;;;;;;;;;;3121997;28;10002230;-70
2022/01/22 12:14:57;;;;;;;11.10;4.80;;;;;;;;;;5034189;28;19952;-70
2022/01/22 12:17:44;;;;;;;11.88;3.80;;;;;;;;;;5054398;28;20048;-70
2022/01/22 12:21:30;;;;;;;15.88;4.28;;;;;;;;;;5034911;28;20167;-70
2022/01/22 12:23:49;;;;;;;8.93;5.00;;;;;;;;;;5046021;28;20110;-70
2022/01/22 12:26:42;;;;;;;11.45;4.97;;;;;;;;;;5039722;28;20560;-70
2022/01/22 12:29:44;;;;;;;10.90;4.72;;;;;;;;;;5043981;28;20528;-70
2022/01/22 12:32:15;;;;;;;9.10;4.38;;;;;;;;;;5044252;28;20053;-70
2022/01/22 12:35:09;;;;;;;8.50;4.63;;;;;;;;;;5038867;28;20127;-70
2022/01/22 12:40:34;;;;;;;9.68;4.68;;;;;;;;;;5020787;28;20057;-75
2022/01/22 12:43:14;;;;;;;10.52;4.40;;;;;;;;;;5040494;28;20045;-74
2022/01/22 12:45:44;;;;;;;10.98;5.05;;;;;;;;;;5049188;28;20136;-75
2022/01/22 12:48:14;;;;;;;9.25;4.20;;;;;;;;;;5036821;28;20063;-75
2022/01/22 12:50:42;;;;;;;11.50;4.50;;;;;;;;;;5043611;28;20045;-74
2022/01/22 12:53:12;;;;;;;8.27;4.05;;;;;;;;;;5042039;28;20119;-74
2022/01/22 12:58:38;;;;;;;11.50;4.45;;;;;;;;;;5044242;28;20071;-74
2022/01/22 13:01:15;;;;;;;10.88;4.07;;;;;;;;;;5045107;28;20052;-74
2022/01/22 13:03:45;;;;;;;11.57;4.72;;;;;;;;;;5048511;28;20044;-72
2022/01/22 13:06:14;;;;;;;11.60;5.30;;;;;;;;;;5039873;28;20038;-73
2022/01/22 13:08:43;;;;;;;10.30;4.75;;;;;;;;;;5031988;28;20107;-73
2022/01/22 13:11:18;;;;;;;5.15;2.45;;;;;;;;;;5044969;28;20076;-73
2022/01/22 13:13:48;;;;;;;12.45;5.15;;;;;;;;;;5037117;28;20076;-74
2022/01/22 13:16:17;;;;;;;8.30;4.35;;;;;;;;;;5038892;28;20045;-73
2022/01/22 13:18:47;;;;;;;12.23;5.03;;;;;;;;;;5040339;28;20045;-74
2022/01/22 13:21:17;;;;;;;12.38;5.72;;;;;;;;;;5029833;28;20045;-74
2022/01/22 13:23:47;;;;;;;10.05;4.53;;;;;;;;;;5045311;28;20048;-74
2022/01/22 13:26:17;;;;;;;13.80;5.13;;;;;;;;;;5043497;28;20037;-73
2022/01/22 13:28:46;;;;;;;10.05;3.55;;;;;;;;;;5039389;28;20047;-73
2022/01/22 13:31:16;;;;;;;10.88;5.18;;;;;;;;;;5047003;28;20451;-74
2022/01/22 13:33:56;;;;;;;13.20;5.05;;;;;;;;;;5048390;28;20072;-73
2022/01/22 13:36:40;;;;;;;12.43;5.13;;;;;;;;;;5041116;28;20049;-74
2022/01/22 13:39:37;;;;;;;8.23;4.10;;;;;;;;;;5035374;28;20512;-73
2022/01/22 13:45:21;;;;;;;10.40;4.32;;;;;;;;;;5040686;28;20052;-73
2022/01/22 13:47:55;;;;;;;9.35;5.15;;;;;;;;;;5067838;28;20443;-73
2022/01/22 13:50:41;;;;;;;10.23;4.32;;;;;;;;;;5009547;28;20103;-73
2022/01/22 13:53:10;;;;;;;9.80;4.63;;;;;;;;;;5021047;28;20050;-73
2022/01/22 13:55:39;;;;;;;8.77;4.93;;;;;;;;;;5018561;28;20056;-73
2022/01/22 13:58:19;;;;;;;13.35;5.20;;;;;;;;;;5025283;28;20054;-73
2022/01/22 14:00:47;;;;;;;12.27;4.90;;;;;;;;;;5041069;28;20045;-73
2022/01/22 14:03:40;;;;;;;13.27;5.20;;;;;;;;;;5038387;28;20144;-74
2022/01/22 14:06:09;;;;;;;10.45;4.75;;;;;;;;;;302791;28;10021882;-73
2022/01/22 14:08:38;;;;;;;11.00;5.05;;;;;;;;;;5031259;28;20356;-73
2022/01/22 14:11:07;;;;;;;14.18;5.53;;;;;;;;;;5038150;28;20451;-73
2022/01/22 14:13:38;;;;;;;13.25;5.35;;;;;;;;;;5047351;28;20402;-73
2022/01/22 14:16:16;;;;;;;11.38;5.22;;;;;;;;;;5033938;28;20088;-72
2022/01/22 14:18:45;;;;;;;12.68;5.80;;;;;;;;;;5041526;28;20045;-73
2022/01/22 14:21:16;;;;;;;9.15;4.60;;;;;;;;;;5040847;28;20052;-72
2022/01/22 14:23:45;;;;;;;13.75;5.22;;;;;;;;;;5033352;28;20045;-74
2022/01/22 14:26:15;;;;;;;11.15;4.85;;;;;;;;;;5036106;28;20584;-74
2022/01/22 14:28:47;;;;;;;14.85;5.50;;;;;;;;;;5032145;28;20487;-74
2022/01/22 14:31:23;;;;;;;10.80;5.30;;;;;;;;;;5049953;28;20405;-73
2022/01/22 14:33:52;;;;;;;17.27;6.10;;;;;;;;;;5033540;28;20049;-74
2022/01/22 14:36:22;;;;;;;13.65;5.00;;;;;;;;;;5040369;28;20083;-73
2022/01/22 14:38:54;;;;;;;11.85;5.32;;;;;;;;;;5036373;28;20151;-74
2022/01/22 14:44:27;;;;;;;12.20;5.13;;;;;;;;;;5032172;28;20059;-73
2022/01/22 14:46:58;;;;;;;12.15;4.88;;;;;;;;;;5030747;28;20045;-73
2022/01/22 14:49:29;;;;;;;10.88;5.05;;;;;;;;;;5031225;28;20507;-73
2022/01/22 14:51:58;;;;;;;12.68;5.32;;;;;;;;;;5028937;28;20450;-73
2022/01/22 14:54:28;;;;;;;11.48;5.32;;;;;;;;;;5035157;28;20046;-73
2022/01/22 14:57:00;;;;;;;14.93;5.50;;;;;;;;;;5042664;28;20504;-73
2022/01/22 14:59:30;;;;;;;13.77;5.95;;;;;;;;;;5047986;28;20049;-73
2022/01/22 15:01:59;;;;;;;9.57;4.88;;;;;;;;;;5042447;28;20049;-74
2022/01/22 15:04:28;;;;;;;12.75;4.97;;;;;;;;;;5030574;28;20048;-74
2022/01/22 15:06:58;;;;;;;13.68;5.40;;;;;;;;;;5036854;28;20075;-74
2022/01/22 15:09:29;;;;;;;14.93;5.75;;;;;;;;;;5037340;28;20512;-74
2022/01/22 15:11:59;;;;;;;11.45;5.50;;;;;;;;;;5045586;28;20127;-74
2022/01/22 15:14:28;;;;;;;15.95;5.80;;;;;;;;;;5036645;28;20045;-74
2022/01/22 15:19:57;;;;;;;11.38;5.45;;;;;;;;;;4994433;28;20378;-74
2022/01/22 15:22:27;;;;;;;10.75;4.75;;;;;;;;;;5043337;28;20485;-74
2022/01/22 15:24:56;;;;;;;11.30;4.82;;;;;;;;;;5043656;28;20063;-74
2022/01/22 15:27:31;;;;;;;11.63;4.93;;;;;;;;;;5033071;28;20064;-73
2022/01/22 15:30:11;;;;;;;9.25;4.50;;;;;;;;;;5033664;28;20052;-68
2022/01/22 15:32:49;;;;;;;12.60;5.32;;;;;;;;;;5040558;28;20072;-69
2022/01/22 15:35:19;;;;;;;12.73;5.30;;;;;;;;;;5037349;28;20448;-69
2022/01/22 15:37:50;;;;;;;12.60;5.43;;;;;;;;;;5030859;28;20045;-69
2022/01/22 15:40:20;;;;;;;14.38;5.35;;;;;;;;;;5037942;28;20053;-70
2022/01/22 15:42:49;;;;;;;10.68;4.65;;;;;;;;;;5039291;28;20045;-69
2022/01/22 15:45:18;;;;;;;12.35;5.05;;;;;;;;;;5045358;28;20041;-69
2022/01/22 15:47:48;;;;;;;9.52;4.93;;;;;;;;;;5044078;28;20123;-70
2022/01/22 15:50:16;;;;;;;12.30;5.68;;;;;;;;;;5040228;28;20562;-69
2022/01/22 15:53:05;;;;;;;11.82;5.47;;;;;;;;;;5037861;28;20067;-70
2022/01/22 15:55:33;;;;;;;10.45;5.50;;;;;;;;;;5047871;28;20060;-68
2022/01/22 15:58:03;;;;;;;13.15;5.60;;;;;;;;;;5034991;28;20054;-69
2022/01/22 16:00:34;;;;;;;11.45;5.68;;;;;;;;;;5031502;28;20053;-68
2022/01/22 16:03:05;;;;;;;15.35;5.28;;;;;;;;;;5031463;28;20878;-69
2022/01/22 16:05:36;;;;;;;11.60;5.70;;;;;;;;;;1381048;28;10022842;-69
2022/01/22 16:08:05;;;;;;;15.00;6.25;;;;;;;;;;3993628;28;10001626;-69
2022/01/22 16:10:54;;;;;;;14.52;6.25;;;;;;;;;;5030096;28;20457;-69
2022/01/22 16:13:23;;;;;;;12.25;5.78;;;;;;;;;;5032632;28;20479;-69
2022/01/22 16:15:52;;;;;;;13.98;5.20;;;;;;;;;;5041183;28;20075;-69
2022/01/22 16:18:22;;;;;;;11.55;5.40;;;;;;;;;;5031713;28;20049;-69
2022/01/22 16:20:51;;;;;;;13.50;5.28;;;;;;;;;;5036228;28;20140;-69
2022/01/22 16:23:20;;;;;;;11.45;5.20;;;;;;;;;;5036525;28;20139;-69
2022/01/22 16:25:48;;;;;;;13.13;6.03;;;;;;;;;;5039021;28;20476;-69
2022/01/22 16:28:17;;;;;;;13.27;5.97;;;;;;;;;;5044418;28;20080;-70
2022/01/22 16:30:45;;;;;;;12.98;6.22;;;;;;;;;;5041099;28;20049;-69
2022/01/22 16:33:14;;;;;;;12.75;5.60;;;;;;;;;;5033616;28;20049;-70